createdAt,value
2017-12-24T00:01:53.301Z,99807.09
2017-12-24T00:04:23.582Z,99810.94
2017-12-24T00:06:54.953Z,99802.87
2017-12-24T00:09:24.210Z,99798.96
2017-12-24T00:11:52.716Z,99798.09
2017-12-24T00:14:22.363Z,99793.16
2017-12-24T00:16:50.895Z,99792.03
2017-12-24T00:19:20.196Z,99790.88
2017-12-24T00:21:49.525Z,99783.74
2017-12-24T00:24:18.049Z,99780.59
2017-12-24T00:26:46.972Z,99780.02
2017-12-24T00:29:17.301Z,99778.42
2017-12-24T00:31:46.805Z,99775.23
2017-12-24T00:34:15.869Z,99774.04
2017-12-24T00:36:44.386Z,99779.73
2017-12-24T00:39:13.839Z,99776.47
2017-12-24T00:41:44.543Z,99776.25
2017-12-24T00:44:14.043Z,99777.48
2017-12-24T00:46:44.315Z,99780.63
2017-12-24T00:49:12.797Z,99775.55
2017-12-24T00:51:41.336Z,99774.80
2017-12-24T00:54:09.872Z,99770.92
2017-12-24T00:56:38.265Z,99771.28
2017-12-24T00:59:08.422Z,99773.45
2017-12-24T01:01:37.856Z,99777.76
2017-12-24T01:04:08.279Z,99774.31
2017-12-24T01:06:40.087Z,99769.25
2017-12-24T01:09:12.992Z,99766.72
2017-12-24T01:11:43.261Z,99760.66
2017-12-24T01:14:13.499Z,99766.05
2017-12-24T01:16:42.015Z,99763.51
2017-12-24T01:19:10.801Z,99760.25
2017-12-24T01:21:39.732Z,99759.43
2017-12-24T01:24:08.832Z,99759.89
2017-12-24T01:26:38.392Z,99746.92
2017-12-24T01:29:06.692Z,99739.66
2017-12-24T01:31:36.930Z,99741.56
2017-12-24T01:34:08.765Z,99747.59
2017-12-24T01:36:39.090Z,99747.26
2017-12-24T01:39:08.809Z,99748.00
2017-12-24T01:41:38.243Z,99745.03
2017-12-24T01:44:06.704Z,99744.03
2017-12-24T01:46:37.145Z,99738.86
2017-12-24T01:49:07.271Z,99743.20
2017-12-24T01:51:36.829Z,99734.37
2017-12-24T01:54:06.180Z,99736.52
2017-12-24T01:56:35.476Z,99732.71
2017-12-24T01:59:04.885Z,99728.52
2017-12-24T02:01:34.193Z,99729.60
2017-12-24T02:04:04.630Z,99728.05
2017-12-24T02:06:33.146Z,99723.41
2017-12-24T02:09:02.560Z,99724.53
2017-12-24T02:11:31.192Z,99724.78
2017-12-24T02:14:00.711Z,99722.11
2017-12-24T02:16:30.806Z,99718.05
2017-12-24T02:18:59.300Z,99714.03
2017-12-24T02:21:30.297Z,99704.66
2017-12-24T02:23:58.781Z,99714.50
2017-12-24T02:26:30.891Z,99702.77
2017-12-24T02:29:00.369Z,99698.75
2017-12-24T02:31:29.042Z,99694.33
2017-12-24T02:33:57.634Z,99697.48
2017-12-24T02:36:26.170Z,99694.73
2017-12-24T02:38:56.483Z,99691.27
2017-12-24T02:41:25.758Z,99693.83
2017-12-24T02:43:58.014Z,99693.64
2017-12-24T02:46:27.237Z,99679.56
2017-12-24T02:48:56.825Z,99678.95
2017-12-24T02:51:26.565Z,99678.09
2017-12-24T02:53:55.140Z,99677.50
2017-12-24T02:56:24.343Z,99670.98
2017-12-24T02:58:54.818Z,99665.56
2017-12-24T03:01:26.945Z,99671.06
2017-12-24T03:03:56.470Z,99670.84
2017-12-24T03:06:27.769Z,99678.59
2017-12-24T03:08:57.310Z,99681.87
2017-12-24T03:11:26.188Z,99679.71
2017-12-24T03:13:57.776Z,99683.00
2017-12-24T03:16:27.401Z,99674.23
2017-12-24T03:18:55.860Z,99674.68
2017-12-24T03:21:24.365Z,99673.27
2017-12-24T03:23:53.718Z,99674.36
2017-12-24T03:26:23.113Z,99677.91
2017-12-24T03:28:51.557Z,99667.80
2017-12-24T03:31:21.052Z,99669.00
2017-12-24T03:33:50.554Z,99664.07
2017-12-24T03:36:20.946Z,99670.84
2017-12-24T03:38:50.414Z,99667.12
2017-12-24T03:41:18.821Z,99660.39
2017-12-24T03:43:47.424Z,99651.88
2017-12-24T03:46:18.012Z,99653.51
2017-12-24T03:48:47.573Z,99653.29
2017-12-24T03:51:16.172Z,99653.11
2017-12-24T03:53:45.796Z,99655.42
2017-12-24T03:56:14.170Z,99648.55
2017-12-24T03:58:42.862Z,99652.14
2017-12-24T04:01:11.185Z,99643.63
2017-12-24T04:03:39.550Z,99641.09
2017-12-24T04:06:07.950Z,99641.97
2017-12-24T04:08:36.290Z,99644.75
2017-12-24T04:11:04.635Z,99642.44
2017-12-24T04:13:33.049Z,99646.12
2017-12-24T04:16:01.471Z,99644.14
2017-12-24T04:18:29.866Z,99653.65
2017-12-24T04:20:58.265Z,99651.45
2017-12-24T04:23:26.634Z,99646.66
2017-12-24T04:25:54.988Z,99647.36
2017-12-24T04:28:23.792Z,99643.05
2017-12-24T04:30:52.264Z,99633.68
2017-12-24T04:33:21.027Z,99638.34
2017-12-24T04:35:50.254Z,99633.71
2017-12-24T04:38:19.389Z,99630.96
2017-12-24T04:40:47.767Z,99633.31
2017-12-24T04:43:16.161Z,99630.84
2017-12-24T04:45:45.341Z,99632.66
2017-12-24T04:48:13.686Z,99634.30
2017-12-24T04:50:42.090Z,99627.02
2017-12-24T04:53:10.446Z,99630.12
2017-12-24T04:55:39.553Z,99626.08
2017-12-24T04:58:07.954Z,99622.53
2017-12-24T05:00:36.309Z,99630.63
2017-12-24T05:03:04.671Z,99632.07
2017-12-24T05:05:33.120Z,99639.81
2017-12-24T05:08:02.306Z,99635.66
2017-12-24T05:10:30.661Z,99639.33
2017-12-24T05:12:59.094Z,99640.08
2017-12-24T05:15:27.460Z,99644.95
2017-12-24T05:17:55.797Z,99651.27
2017-12-24T05:20:24.986Z,99652.13
2017-12-24T05:22:53.401Z,99648.58
2017-12-24T05:25:22.513Z,99648.19
2017-12-24T05:27:51.775Z,99639.14
2017-12-24T05:30:20.226Z,99640.48
2017-12-24T05:32:48.635Z,99635.13
2017-12-24T05:35:17.065Z,99637.58
2017-12-24T05:37:45.434Z,99635.05
2017-12-24T05:40:13.813Z,99633.06
2017-12-24T05:42:43.128Z,99630.92
2017-12-24T05:45:11.486Z,99631.94
2017-12-24T05:47:40.601Z,99629.91
2017-12-24T05:50:09.783Z,99630.92
2017-12-24T05:52:38.168Z,99616.95
2017-12-24T05:55:06.493Z,99615.15
2017-12-24T05:57:35.672Z,99612.31
2017-12-24T06:00:04.054Z,99614.09
2017-12-24T06:02:32.398Z,99609.07
2017-12-24T06:05:00.813Z,99611.63
2017-12-24T06:07:29.171Z,99613.41
2017-12-24T06:09:58.413Z,99613.69
2017-12-24T06:12:26.809Z,99619.22
2017-12-24T06:14:55.149Z,99612.27
2017-12-24T06:17:23.533Z,99617.78
2017-12-24T06:19:51.934Z,99616.69
2017-12-24T06:22:21.099Z,99622.44
2017-12-24T06:24:49.452Z,99618.02
2017-12-24T06:27:19.007Z,99613.34
2017-12-24T06:29:47.386Z,99611.55
2017-12-24T06:32:15.736Z,99612.20
2017-12-24T06:34:44.141Z,99607.56
2017-12-24T06:37:18.631Z,99609.90
2017-12-24T06:39:47.133Z,99612.30
2017-12-24T06:42:15.510Z,99613.31
2017-12-24T06:44:44.255Z,99596.03
2017-12-24T06:47:12.961Z,99602.72
2017-12-24T06:49:41.612Z,99598.40
2017-12-24T06:52:10.034Z,99596.75
2017-12-24T06:54:38.500Z,99597.66
2017-12-24T06:57:07.157Z,99596.87
2017-12-24T06:59:35.938Z,99600.02
2017-12-24T07:02:05.136Z,99595.34
2017-12-24T07:04:33.504Z,99592.94
2017-12-24T07:07:01.894Z,99595.84
2017-12-24T07:09:30.310Z,99593.07
2017-12-24T07:11:59.275Z,99593.11
2017-12-24T07:14:28.111Z,99596.91
2017-12-24T07:16:56.573Z,99602.61
2017-12-24T07:19:25.019Z,99605.99
2017-12-24T07:21:54.702Z,99594.73
2017-12-24T07:24:23.490Z,99594.80
2017-12-24T07:26:51.849Z,99600.48
2017-12-24T07:29:20.255Z,99601.68
2017-12-24T07:31:49.473Z,99595.78
2017-12-24T07:34:18.623Z,99593.36
2017-12-24T07:36:47.465Z,99591.77
2017-12-24T07:39:16.090Z,99591.05
2017-12-24T07:41:44.550Z,99587.83
2017-12-24T07:44:12.887Z,99592.00
2017-12-24T07:46:42.680Z,99594.71
2017-12-24T07:49:11.522Z,99596.08
2017-12-24T07:51:40.372Z,99599.05
2017-12-24T07:54:09.678Z,99600.53
2017-12-24T07:56:38.088Z,99597.27
2017-12-24T07:59:06.488Z,99595.56
2017-12-24T08:01:35.779Z,99578.45
2017-12-24T08:04:05.504Z,99582.27
2017-12-24T08:06:34.203Z,99582.55
2017-12-24T08:09:04.131Z,99575.28
2017-12-24T08:11:32.940Z,99584.38
2017-12-24T08:14:01.401Z,99579.34
2017-12-24T08:16:29.991Z,99583.68
2017-12-24T08:18:58.660Z,99583.44
2017-12-24T08:21:27.213Z,99582.60
2017-12-24T08:23:56.890Z,99585.19
2017-12-24T08:26:25.915Z,99584.49
2017-12-24T08:28:54.362Z,99582.11
2017-12-24T08:31:23.098Z,99585.45
2017-12-24T08:33:52.087Z,99581.68
2017-12-24T08:36:20.955Z,99581.56
2017-12-24T08:38:49.764Z,99585.87
2017-12-24T08:41:18.184Z,99590.93
2017-12-24T08:43:46.541Z,99580.96
2017-12-24T08:46:15.445Z,99588.30
2017-12-24T08:48:43.862Z,99586.86
2017-12-24T08:51:12.282Z,99592.88
2017-12-24T08:53:40.732Z,99594.49
2017-12-24T08:56:09.146Z,99596.86
2017-12-24T08:58:37.498Z,99588.39
2017-12-24T09:01:05.918Z,99592.05
2017-12-24T09:03:35.059Z,99590.06
2017-12-24T09:06:06.794Z,99590.66
2017-12-24T09:08:35.393Z,99585.41
2017-12-24T09:11:03.825Z,99590.67
2017-12-24T09:13:32.451Z,99593.46
2017-12-24T09:16:06.006Z,99592.64
2017-12-24T09:18:35.179Z,99594.94
2017-12-24T09:21:03.929Z,99585.41
2017-12-24T09:23:33.031Z,99588.48
2017-12-24T09:26:01.856Z,99588.55
2017-12-24T09:28:30.281Z,99590.30
2017-12-24T09:31:00.709Z,99594.15
2017-12-24T09:33:29.090Z,99591.09
2017-12-24T09:35:57.603Z,99595.22
2017-12-24T09:38:25.993Z,99592.11
2017-12-24T09:40:54.582Z,99595.69
2017-12-24T09:43:23.115Z,99597.44
2017-12-24T09:45:51.616Z,99595.45
2017-12-24T09:48:22.375Z,99590.66
2017-12-24T09:50:50.822Z,99594.19
2017-12-24T09:53:19.913Z,99586.86
2017-12-24T09:55:48.946Z,99584.05
2017-12-24T09:58:17.991Z,99574.73
2017-12-24T10:00:46.454Z,99576.05
2017-12-24T10:03:14.993Z,99575.19
2017-12-24T10:05:43.416Z,99571.96
2017-12-24T10:08:12.675Z,99583.29
2017-12-24T10:10:41.920Z,99576.23
2017-12-24T10:13:10.378Z,99573.30
2017-12-24T10:15:39.519Z,99573.04
2017-12-24T10:18:08.256Z,99565.69
2017-12-24T10:20:36.806Z,99566.63
2017-12-24T10:23:05.174Z,99561.17
2017-12-24T10:25:33.547Z,99561.17
2017-12-24T10:28:02.928Z,99560.48
2017-12-24T10:30:31.330Z,99558.36
2017-12-24T10:32:59.697Z,99547.02
2017-12-24T10:35:28.109Z,99548.66
2017-12-24T10:37:56.900Z,99541.27
2017-12-24T10:40:25.257Z,99536.54
2017-12-24T10:48:09.597Z,99529.89
2017-12-24T10:50:37.972Z,99525.45
2017-12-24T10:53:07.144Z,99530.23
2017-12-24T10:55:50.571Z,99523.52
2017-12-24T10:58:19.006Z,99519.20
2017-12-24T11:00:47.423Z,99512.02
2017-12-24T11:03:16.605Z,99508.30
2017-12-24T11:05:50.612Z,99506.34
2017-12-24T11:08:18.986Z,99501.52
2017-12-24T11:10:47.339Z,99500.40
2017-12-24T11:13:22.850Z,99492.08
2017-12-24T11:15:51.318Z,99489.84
2017-12-24T11:18:20.711Z,99489.16
2017-12-24T11:20:49.274Z,99486.17
2017-12-24T11:23:17.789Z,99486.85
2017-12-24T11:25:46.204Z,99482.90
2017-12-24T11:28:15.338Z,99480.91
2017-12-24T11:30:43.757Z,99477.06
2017-12-24T11:33:15.337Z,99470.00
2017-12-24T11:35:51.050Z,99462.34
2017-12-24T11:38:19.431Z,99459.98
2017-12-24T11:40:47.901Z,99457.63
2017-12-24T11:43:16.351Z,99453.52
2017-12-24T11:45:44.710Z,99444.98
2017-12-24T11:48:13.810Z,99441.84
2017-12-24T11:50:42.997Z,99439.39
2017-12-24T11:53:11.344Z,99434.44
2017-12-24T11:55:39.746Z,99430.50
2017-12-24T11:58:08.173Z,99426.20
2017-12-24T12:00:36.530Z,99422.06
2017-12-24T12:03:04.869Z,99426.30
2017-12-24T12:05:33.249Z,99419.15
2017-12-24T12:08:01.633Z,99411.30
2017-12-24T12:10:29.991Z,99409.42
2017-12-24T12:12:58.409Z,99406.64
2017-12-24T12:15:26.857Z,99403.08
2017-12-24T12:17:55.263Z,99401.63
2017-12-24T12:20:24.232Z,99398.05
2017-12-24T12:22:52.620Z,99397.23
2017-12-24T12:25:21.692Z,99394.33
2017-12-24T12:27:50.642Z,99394.31
2017-12-24T12:30:18.943Z,99393.20
2017-12-24T12:32:47.357Z,99392.13
2017-12-24T12:35:15.685Z,99390.25
2017-12-24T12:37:44.183Z,99394.52
2017-12-24T12:40:13.001Z,99385.09
2017-12-24T12:42:43.239Z,99384.27
2017-12-24T12:45:13.473Z,99387.56
2017-12-24T12:47:45.201Z,99383.03
2017-12-24T12:50:15.165Z,99373.95
2017-12-24T12:52:49.828Z,99381.60
2017-12-24T12:55:19.765Z,99374.11
2017-12-24T12:57:49.025Z,99371.09
2017-12-24T13:00:19.728Z,99364.09
2017-12-24T13:02:49.629Z,99363.09
2017-12-24T13:05:21.016Z,99358.11
2017-12-24T13:07:52.762Z,99359.72
2017-12-24T13:10:23.321Z,99360.46
2017-12-24T13:12:53.342Z,99353.31
2017-12-24T13:15:22.376Z,99352.15
2017-12-24T13:18:00.079Z,99347.87
2017-12-24T13:20:32.127Z,99346.61
2017-12-24T13:23:02.964Z,99345.16
2017-12-24T13:25:32.816Z,99341.39
2017-12-24T13:28:02.591Z,99344.13
2017-12-24T13:30:32.597Z,99341.03
2017-12-24T13:33:01.698Z,99345.45
2017-12-24T13:35:33.239Z,99338.19
2017-12-24T13:38:03.856Z,99339.34
2017-12-24T13:40:34.380Z,99329.48
2017-12-24T13:43:06.171Z,99333.89
2017-12-24T13:45:36.235Z,99339.09
2017-12-24T13:48:06.075Z,99330.95
2017-12-24T13:50:40.003Z,99337.03
2017-12-24T13:53:12.447Z,99338.42
2017-12-24T13:55:42.486Z,99332.33
2017-12-24T13:58:12.931Z,99333.48
2017-12-24T14:00:45.270Z,99332.27
2017-12-24T14:03:22.585Z,99333.44
2017-12-24T14:05:52.524Z,99328.73
2017-12-24T14:08:25.905Z,99327.50
2017-12-24T14:10:57.991Z,99322.36
2017-12-24T14:13:28.020Z,99319.47
2017-12-24T14:16:00.249Z,99316.17
2017-12-24T14:18:29.318Z,99310.66
2017-12-24T14:20:58.356Z,99313.05
2017-12-24T14:23:26.736Z,99315.28
2017-12-24T14:25:55.876Z,99307.72
2017-12-24T14:28:26.651Z,99309.26
2017-12-24T14:30:58.087Z,99309.93
2017-12-24T14:33:27.995Z,99308.94
2017-12-24T14:35:58.082Z,99308.74
2017-12-24T14:38:29.636Z,99305.53
2017-12-24T14:41:00.085Z,99302.72
2017-12-24T14:43:31.076Z,99305.41
2017-12-24T14:46:03.464Z,99301.14
2017-12-24T14:48:33.393Z,99303.08
2017-12-24T14:51:03.365Z,99305.95
2017-12-24T14:53:32.328Z,99307.50
2017-12-24T14:56:02.260Z,99303.42
2017-12-24T14:58:32.047Z,99299.77
2017-12-24T15:01:02.044Z,99297.96
2017-12-24T15:03:34.325Z,99296.18
2017-12-24T15:06:06.867Z,99301.91
2017-12-24T15:08:38.278Z,99300.70
2017-12-24T15:11:10.838Z,99306.23
2017-12-24T15:13:41.553Z,99301.52
2017-12-24T15:16:12.420Z,99302.38
2017-12-24T15:18:42.993Z,99303.49
2017-12-24T15:21:11.998Z,99305.70
2017-12-24T15:23:41.041Z,99305.22
2017-12-24T15:26:09.616Z,99298.55
2017-12-24T15:28:38.068Z,99303.62
2017-12-24T15:31:06.654Z,99300.48
2017-12-24T15:33:36.945Z,99296.44
2017-12-24T15:36:11.606Z,99298.88
2017-12-24T15:38:42.320Z,99299.03
2017-12-24T15:41:12.190Z,99294.09
2017-12-24T15:43:44.616Z,99297.02
2017-12-24T15:46:13.591Z,99292.61
2017-12-24T15:48:42.692Z,99296.14
2017-12-24T15:51:11.713Z,99292.97
2017-12-24T15:53:40.128Z,99294.14
2017-12-24T15:56:09.022Z,99294.49
2017-12-24T15:58:37.379Z,99293.08
2017-12-24T16:01:06.661Z,99289.09
2017-12-24T16:03:35.488Z,99290.88
2017-12-24T16:06:04.608Z,99287.77
2017-12-24T16:08:33.780Z,99289.02
2017-12-24T16:11:02.985Z,99296.06
2017-12-24T16:13:32.409Z,99293.09
2017-12-24T16:16:02.053Z,99295.74
2017-12-24T16:18:36.820Z,99286.67
2017-12-24T16:21:05.784Z,99289.91
2017-12-24T16:23:35.011Z,99285.52
2017-12-24T16:26:03.989Z,99290.34
2017-12-24T16:28:33.266Z,99288.88
2017-12-24T16:31:04.592Z,99288.13
2017-12-24T16:33:33.915Z,99290.75
2017-12-24T16:36:04.588Z,99285.30
2017-12-24T16:38:33.695Z,99281.29
2017-12-24T16:41:02.620Z,99288.60
2017-12-24T16:43:31.759Z,99286.81
2017-12-24T16:46:01.512Z,99291.38
2017-12-24T16:48:31.765Z,99290.13
2017-12-24T16:51:02.317Z,99290.41
2017-12-24T16:53:31.368Z,99288.19
2017-12-24T16:56:00.492Z,99290.50
2017-12-24T16:58:28.904Z,99290.53
2017-12-24T17:00:57.716Z,99287.53
2017-12-24T17:03:27.077Z,99288.02
2017-12-24T17:05:55.643Z,99290.97
2017-12-24T17:08:24.336Z,99296.78
2017-12-24T17:10:52.780Z,99294.50
2017-12-24T17:13:21.839Z,99296.05
2017-12-24T17:15:50.772Z,99293.45
2017-12-24T17:18:19.145Z,99297.77
2017-12-24T17:20:47.749Z,99296.05
2017-12-24T17:23:16.450Z,99296.12
2017-12-24T17:25:44.919Z,99300.71
2017-12-24T17:28:13.596Z,99295.09
2017-12-24T17:30:42.087Z,99299.44
2017-12-24T17:33:11.124Z,99296.83
2017-12-24T17:35:39.620Z,99300.80
2017-12-24T17:38:07.931Z,99294.91
2017-12-24T17:40:36.316Z,99294.27
2017-12-24T17:43:04.636Z,99293.51
2017-12-24T17:45:33.414Z,99294.47
2017-12-24T17:48:01.853Z,99289.37
2017-12-24T17:50:30.811Z,99296.70
2017-12-24T17:52:59.511Z,99293.23
2017-12-24T17:55:29.973Z,99290.63
2017-12-24T17:57:58.771Z,99292.50
2017-12-24T18:00:27.146Z,99287.79
2017-12-24T18:02:56.316Z,99298.80
2017-12-24T18:05:25.312Z,99294.61
2017-12-24T18:07:53.692Z,99295.25
2017-12-24T18:10:22.040Z,99295.77
2017-12-24T18:12:50.432Z,99295.11
2017-12-24T18:15:19.409Z,99294.21
2017-12-24T18:17:48.514Z,99290.33
2017-12-24T18:20:16.872Z,99296.98
2017-12-24T18:22:45.933Z,99293.80
2017-12-24T18:25:15.852Z,99287.59
2017-12-24T18:27:44.712Z,99294.23
2017-12-24T18:30:13.999Z,99291.26
2017-12-24T18:32:42.969Z,99292.95
2017-12-24T18:35:11.277Z,99293.48
2017-12-24T18:37:40.263Z,99283.38
2017-12-24T18:40:08.724Z,99283.27
2017-12-24T18:42:37.704Z,99281.80
2017-12-24T18:45:06.187Z,99274.28
2017-12-24T18:47:35.545Z,99270.14
2017-12-24T18:50:04.168Z,99265.62
2017-12-24T18:52:32.530Z,99267.64
2017-12-24T18:55:01.604Z,99262.98
2017-12-24T18:57:30.690Z,99257.45
2017-12-24T18:59:59.695Z,99261.31
2017-12-24T19:02:28.060Z,99267.09
2017-12-24T19:04:57.225Z,99261.75
2017-12-24T19:07:26.216Z,99263.34
2017-12-24T19:09:55.327Z,99258.22
2017-12-24T19:12:23.961Z,99264.84
2017-12-24T19:14:55.006Z,99258.66
2017-12-24T19:17:23.832Z,99259.58
2017-12-24T19:19:52.388Z,99258.17
2017-12-24T19:22:21.723Z,99259.22
2017-12-24T19:24:50.288Z,99261.13
2017-12-24T19:27:18.596Z,99253.04
2017-12-24T19:29:48.114Z,99251.03
2017-12-24T19:32:17.344Z,99250.38
2017-12-24T19:34:45.664Z,99253.86
2017-12-24T19:37:14.566Z,99251.28
2017-12-24T19:39:43.628Z,99246.41
2017-12-24T19:42:14.324Z,99248.94
2017-12-24T19:44:42.822Z,99243.45
2017-12-24T19:47:12.501Z,99241.39
2017-12-24T19:49:40.862Z,99241.23
2017-12-24T19:52:09.693Z,99241.02
2017-12-24T19:54:38.286Z,99238.09
2017-12-24T19:57:06.781Z,99236.17
2017-12-24T19:59:35.579Z,99236.33
2017-12-24T20:02:04.403Z,99231.69
2017-12-24T20:04:32.783Z,99231.61
2017-12-24T20:07:02.095Z,99232.16
2017-12-24T20:09:31.189Z,99229.58
2017-12-24T20:12:01.099Z,99232.00
2017-12-24T20:14:30.153Z,99231.60
2017-12-24T20:16:58.553Z,99236.55
2017-12-24T20:19:27.719Z,99230.73
2017-12-24T20:21:56.800Z,99229.80
2017-12-24T20:24:26.931Z,99230.34
2017-12-24T20:26:56.615Z,99223.68
2017-12-24T20:29:25.488Z,99221.11
2017-12-24T20:31:53.850Z,99219.17
2017-12-24T20:34:22.977Z,99225.05
2017-12-24T20:36:52.588Z,99214.55
2017-12-24T20:39:21.131Z,99215.14
2017-12-24T20:41:50.932Z,99215.73
2017-12-24T20:44:19.285Z,99216.27
2017-12-24T20:46:47.708Z,99215.47
2017-12-24T20:49:16.296Z,99210.49
2017-12-24T20:51:44.943Z,99215.52
2017-12-24T20:54:13.299Z,99215.00
2017-12-24T20:56:42.457Z,99213.34
2017-12-24T20:59:10.899Z,99211.91
2017-12-24T21:01:40.991Z,99215.36
2017-12-24T21:04:09.776Z,99215.27
2017-12-24T21:06:38.193Z,99208.95
2017-12-24T21:09:06.993Z,99210.44
2017-12-24T21:11:36.126Z,99212.74
2017-12-24T21:14:05.166Z,99211.77
2017-12-24T21:16:33.519Z,99205.70
2017-12-24T21:19:02.753Z,99211.11
2017-12-24T21:21:31.688Z,99205.78
2017-12-24T21:24:00.811Z,99209.37
2017-12-24T21:26:30.022Z,99198.60
2017-12-24T21:28:59.055Z,99198.31
2017-12-24T21:31:28.027Z,99194.59
2017-12-24T21:33:57.302Z,99192.87
2017-12-24T21:36:26.165Z,99196.44
2017-12-24T21:38:54.608Z,99191.34
2017-12-24T21:41:23.765Z,99192.76
2017-12-24T21:43:52.220Z,99186.23
2017-12-24T21:46:21.755Z,99185.25
2017-12-24T21:48:50.899Z,99186.58
2017-12-24T21:51:19.246Z,99185.89
2017-12-24T21:53:48.256Z,99188.64
2017-12-24T21:56:17.443Z,99182.98
2017-12-24T21:58:46.486Z,99189.66
2017-12-24T22:01:15.550Z,99182.18
2017-12-24T22:03:44.124Z,99184.78
2017-12-24T22:06:12.898Z,99180.95
2017-12-24T22:08:41.994Z,99183.13
2017-12-24T22:11:10.400Z,99174.03
2017-12-24T22:13:40.209Z,99175.59
2017-12-24T22:16:08.900Z,99179.36
2017-12-24T22:18:38.025Z,99174.53
2017-12-24T22:21:07.474Z,99179.90
2017-12-24T22:23:36.545Z,99175.78
2017-12-24T22:26:05.117Z,99172.11
2017-12-24T22:28:33.992Z,99171.27
2017-12-24T22:31:03.033Z,99169.77
2017-12-24T22:33:32.047Z,99162.41
2017-12-24T22:36:01.389Z,99164.88
2017-12-24T22:38:29.831Z,99165.43
2017-12-24T22:40:59.583Z,99161.11
2017-12-24T22:43:28.545Z,99159.24
2017-12-24T22:45:57.668Z,99159.09
2017-12-24T22:48:26.711Z,99150.44
2017-12-24T22:50:55.760Z,99145.03
2017-12-24T22:53:24.249Z,99146.61
2017-12-24T22:55:52.556Z,99151.30
2017-12-24T22:58:21.693Z,99151.91
2017-12-24T23:00:50.522Z,99146.65
2017-12-24T23:03:19.632Z,99148.16
2017-12-24T23:05:48.080Z,99153.64
2017-12-24T23:08:17.234Z,99151.05
2017-12-24T23:10:46.143Z,99151.05
2017-12-24T23:13:14.760Z,99151.65
2017-12-24T23:15:43.813Z,99152.22
2017-12-24T23:18:12.790Z,99149.92
2017-12-24T23:20:41.586Z,99146.68
2017-12-24T23:23:10.206Z,99141.28
2017-12-24T23:25:39.410Z,99140.59
2017-12-24T23:28:08.514Z,99138.58
2017-12-24T23:30:38.422Z,99140.13
2017-12-24T23:33:07.022Z,99139.19
2017-12-24T23:35:35.624Z,99138.14
2017-12-24T23:38:04.078Z,99140.05
2017-12-24T23:40:32.435Z,99139.95
2017-12-24T23:43:01.288Z,99137.42
2017-12-24T23:45:29.712Z,99139.17
2017-12-24T23:47:58.202Z,99140.84
2017-12-24T23:50:26.928Z,99136.80
2017-12-24T23:52:56.112Z,99131.65
2017-12-24T23:55:24.845Z,99133.23
2017-12-24T23:57:53.373Z,99133.05
